createdAt,value
2023-05-09T00:01:50.239Z,35.87
2023-05-09T00:04:38.780Z,38.37
2023-05-09T00:07:27.181Z,37.30
2023-05-09T00:10:16.974Z,38.27
2023-05-09T00:13:06.107Z,37.20
2023-05-09T00:15:54.744Z,37.07
2023-05-09T00:18:43.502Z,36.60
2023-05-09T00:21:31.970Z,37.70
2023-05-09T00:24:20.426Z,37.37
2023-05-09T00:27:10.437Z,37.17
2023-05-09T00:29:58.902Z,35.77
2023-05-09T00:32:47.546Z,36.40
2023-05-09T00:35:36.009Z,37.20
2023-05-09T00:38:24.758Z,38.90
2023-05-09T00:41:13.200Z,35.27
2023-05-09T00:44:03.081Z,34.03
2023-05-09T00:46:51.710Z,36.97
2023-05-09T00:49:40.146Z,36.10
2023-05-09T00:52:28.958Z,34.67
2023-05-09T00:55:17.380Z,35.70
2023-05-09T00:58:06.250Z,35.30
2023-05-09T01:00:55.985Z,34.53
2023-05-09T01:03:45.710Z,35.37
2023-05-09T01:06:39.806Z,36.30
2023-05-09T01:09:34.181Z,35.07
2023-05-09T01:12:27.857Z,35.00
2023-05-09T01:15:21.641Z,35.57
2023-05-09T01:18:16.207Z,34.83
2023-05-09T01:21:08.902Z,38.50
2023-05-09T01:24:14.040Z,35.27
2023-05-09T01:27:17.248Z,34.57
2023-05-09T01:30:09.619Z,35.27
2023-05-09T01:33:01.849Z,36.60
2023-05-09T01:35:53.392Z,35.23
2023-05-09T01:38:43.705Z,36.23
2023-05-09T01:41:32.958Z,34.97
2023-05-09T01:44:23.307Z,35.20
2023-05-09T01:47:13.168Z,34.00
2023-05-09T01:50:02.542Z,36.03
2023-05-09T01:52:54.692Z,35.20
2023-05-09T01:55:44.841Z,32.57
2023-05-09T01:58:35.034Z,34.20
2023-05-09T02:01:23.817Z,33.20
2023-05-09T02:04:14.497Z,34.40
2023-05-09T02:07:03.024Z,34.93
2023-05-09T02:09:52.123Z,35.80
2023-05-09T02:12:41.089Z,37.07
2023-05-09T02:15:30.634Z,34.87
2023-05-09T02:18:19.053Z,33.43
2023-05-09T02:21:08.924Z,31.67
2023-05-09T02:23:57.534Z,32.60
2023-05-09T02:26:45.973Z,36.90
2023-05-09T02:29:40.331Z,33.47
2023-05-09T02:32:32.060Z,36.40
2023-05-09T02:35:20.925Z,33.27
2023-05-09T02:38:11.351Z,34.63
2023-05-09T02:40:59.739Z,32.23
2023-05-09T02:43:48.503Z,32.07
2023-05-09T02:46:36.926Z,33.37
2023-05-09T02:49:32.047Z,33.97
2023-05-09T02:52:21.836Z,32.77
2023-05-09T02:55:12.253Z,32.53
2023-05-09T02:58:12.733Z,34.07
2023-05-09T03:01:02.466Z,31.57
2023-05-09T03:03:51.150Z,32.30
2023-05-09T03:06:41.887Z,30.40
2023-05-09T03:09:30.302Z,32.43
2023-05-09T03:12:20.192Z,42.83
2023-05-09T03:15:09.987Z,34.40
2023-05-09T03:18:00.875Z,34.60
2023-05-09T03:20:49.391Z,30.83
2023-05-09T03:23:38.133Z,31.87
2023-05-09T03:26:27.402Z,32.90
2023-05-09T03:29:18.112Z,32.10
2023-05-09T03:32:06.814Z,31.47
2023-05-09T03:34:55.428Z,32.80
2023-05-09T03:37:43.809Z,31.67
2023-05-09T03:40:32.287Z,31.53
2023-05-09T03:43:27.711Z,31.30
2023-05-09T03:46:17.661Z,31.40
2023-05-09T03:49:08.924Z,30.43
2023-05-09T03:51:58.167Z,29.50
2023-05-09T03:54:48.376Z,31.17
2023-05-09T03:57:37.652Z,30.70
2023-05-09T04:00:26.757Z,29.07
2023-05-09T04:03:25.363Z,33.77
2023-05-09T04:06:15.613Z,30.07
2023-05-09T04:09:05.828Z,30.80
2023-05-09T04:11:54.435Z,29.20
2023-05-09T04:14:43.328Z,30.40
2023-05-09T04:17:31.846Z,29.57
2023-05-09T04:20:21.634Z,28.47
2023-05-09T04:23:10.134Z,30.07
2023-05-09T04:26:00.150Z,28.90
2023-05-09T04:28:49.020Z,31.07
2023-05-09T04:31:39.202Z,29.07
2023-05-09T04:34:29.702Z,30.57
2023-05-09T04:37:23.796Z,28.97
2023-05-09T04:40:13.359Z,27.50
2023-05-09T04:43:08.029Z,27.33
2023-05-09T04:45:57.259Z,29.50
2023-05-09T04:48:46.003Z,29.13
2023-05-09T04:51:34.436Z,28.40
2023-05-09T04:54:24.199Z,27.80
2023-05-09T04:57:18.526Z,29.40
2023-05-09T05:00:14.960Z,28.30
2023-05-09T05:03:03.608Z,29.37
2023-05-09T05:05:52.341Z,30.73
2023-05-09T05:08:40.715Z,27.97
2023-05-09T05:11:31.406Z,29.77
2023-05-09T05:14:20.651Z,30.50
2023-05-09T05:17:09.223Z,30.67
2023-05-09T05:19:58.066Z,29.00
2023-05-09T05:22:48.323Z,28.27
2023-05-09T05:25:36.788Z,30.27
2023-05-09T05:28:26.558Z,28.20
2023-05-09T05:31:15.014Z,30.03
2023-05-09T05:34:03.869Z,30.17
2023-05-09T05:36:53.744Z,28.33
2023-05-09T05:39:42.190Z,28.53
2023-05-09T05:42:30.812Z,28.70
2023-05-09T05:45:20.857Z,28.77
2023-05-09T05:48:12.738Z,27.67
2023-05-09T05:51:01.178Z,28.30
2023-05-09T05:53:52.931Z,26.97
2023-05-09T05:56:41.944Z,29.37
2023-05-09T05:59:31.033Z,27.97
2023-05-09T06:02:20.977Z,34.23
2023-05-09T06:05:10.623Z,28.87
2023-05-09T06:07:59.182Z,27.80
2023-05-09T06:10:47.544Z,28.50
2023-05-09T06:13:35.872Z,28.00
2023-05-09T06:16:27.504Z,29.03
2023-05-09T06:19:17.458Z,30.67
2023-05-09T06:22:05.771Z,29.50
2023-05-09T06:24:54.471Z,29.07
2023-05-09T06:27:43.374Z,29.63
2023-05-09T06:30:31.738Z,36.60
2023-05-09T06:33:20.121Z,28.70
2023-05-09T06:36:10.188Z,29.97
2023-05-09T06:38:58.508Z,29.90
2023-05-09T06:41:46.895Z,30.63
2023-05-09T06:44:44.273Z,28.00
2023-05-09T06:47:32.700Z,29.00
2023-05-09T06:50:21.166Z,48.63
2023-05-09T06:53:10.912Z,27.60
2023-05-09T06:55:59.411Z,28.40
2023-05-09T06:58:47.769Z,29.80
2023-05-09T07:01:36.289Z,28.97
2023-05-09T07:04:24.655Z,28.77
2023-05-09T07:07:13.057Z,29.30
2023-05-09T07:10:11.412Z,32.07
2023-05-09T07:13:00.819Z,29.40
2023-05-09T07:15:49.195Z,28.33
2023-05-09T07:18:37.597Z,28.67
2023-05-09T07:21:25.947Z,32.10
2023-05-09T07:24:14.315Z,30.97
2023-05-09T07:27:05.025Z,28.67
2023-05-09T07:29:53.355Z,30.87
2023-05-09T07:32:41.779Z,29.50
2023-05-09T07:35:30.238Z,31.10
2023-05-09T07:38:18.568Z,31.83
2023-05-09T07:41:07.191Z,29.40
2023-05-09T07:43:56.877Z,30.47
2023-05-09T07:46:45.273Z,31.67
2023-05-09T07:49:33.640Z,32.47
2023-05-09T07:52:21.994Z,33.90
2023-05-09T07:55:12.391Z,33.37
2023-05-09T07:58:00.712Z,32.50
2023-05-09T08:00:50.485Z,35.40
2023-05-09T08:03:38.961Z,33.47
2023-05-09T08:06:27.406Z,36.40
2023-05-09T08:09:16.025Z,35.70
2023-05-09T08:12:04.776Z,34.60
2023-05-09T08:14:53.609Z,36.17
2023-05-09T08:17:43.367Z,36.47
2023-05-09T08:20:31.824Z,37.17
2023-05-09T08:23:20.173Z,33.30
2023-05-09T08:26:08.553Z,39.60
2023-05-09T08:28:56.947Z,37.77
2023-05-09T08:31:45.319Z,36.27
2023-05-09T08:34:35.366Z,36.80
2023-05-09T08:37:23.691Z,37.00
2023-05-09T08:40:12.495Z,38.27
2023-05-09T08:43:01.015Z,38.60
2023-05-09T08:45:52.984Z,37.50
2023-05-09T08:48:41.666Z,38.67
2023-05-09T08:51:32.271Z,36.77
2023-05-09T08:54:22.701Z,39.03
2023-05-09T08:57:11.378Z,40.60
2023-05-09T09:00:00.304Z,38.87
2023-05-09T09:02:48.893Z,40.47
2023-05-09T09:05:41.975Z,39.70
2023-05-09T09:08:32.026Z,41.93
2023-05-09T09:11:22.493Z,41.10
2023-05-09T09:14:13.999Z,41.00
2023-05-09T09:17:02.677Z,39.77
2023-05-09T09:19:51.492Z,43.30
2023-05-09T09:22:44.216Z,39.23
2023-05-09T09:25:33.903Z,41.07
2023-05-09T09:28:22.266Z,40.70
2023-05-09T09:31:23.503Z,40.97
2023-05-09T09:34:11.844Z,39.87
2023-05-09T09:37:00.320Z,39.57
2023-05-09T09:39:55.025Z,41.07
2023-05-09T09:42:45.825Z,44.60
2023-05-09T09:45:34.154Z,40.57
2023-05-09T09:48:25.486Z,41.07
2023-05-09T09:51:13.815Z,43.50
2023-05-09T09:54:03.300Z,41.10
2023-05-09T09:56:54.306Z,42.53
2023-05-09T09:59:59.302Z,43.30
2023-05-09T10:02:49.400Z,42.23
2023-05-09T10:05:40.802Z,42.73
2023-05-09T10:08:29.214Z,43.40
2023-05-09T10:11:17.657Z,41.67
2023-05-09T10:14:06.236Z,41.90
2023-05-09T10:16:57.735Z,43.77
2023-05-09T10:19:47.623Z,41.67
2023-05-09T10:22:37.410Z,42.47
2023-05-09T10:25:29.467Z,42.73
2023-05-09T10:28:20.010Z,43.77
2023-05-09T10:31:13.800Z,45.37
2023-05-09T10:34:07.041Z,40.50
2023-05-09T10:36:55.819Z,44.00
2023-05-09T10:39:45.031Z,43.40
2023-05-09T10:42:33.590Z,41.77
2023-05-09T10:45:22.777Z,43.73
2023-05-09T10:48:12.400Z,44.20
2023-05-09T10:51:02.629Z,42.20
2023-05-09T10:53:52.276Z,49.20
2023-05-09T10:56:40.874Z,43.93
2023-05-09T10:59:37.794Z,44.57
2023-05-09T11:02:29.398Z,42.20
2023-05-09T11:05:19.201Z,43.00
2023-05-09T11:08:26.328Z,41.17
2023-05-09T11:11:25.474Z,43.70
2023-05-09T11:14:34.966Z,42.90
2023-05-09T11:17:30.148Z,43.77
2023-05-09T11:20:18.629Z,42.60
2023-05-09T11:23:07.430Z,43.50
2023-05-09T11:26:06.543Z,42.20
2023-05-09T11:28:56.825Z,42.20
2023-05-09T11:32:06.390Z,45.73
2023-05-09T11:35:07.066Z,45.00
2023-05-09T11:38:01.798Z,42.40
2023-05-09T11:40:50.142Z,44.30
2023-05-09T11:43:40.553Z,42.57
2023-05-09T11:46:29.318Z,41.30
2023-05-09T11:49:19.448Z,42.87
2023-05-09T11:52:07.866Z,43.27
2023-05-09T11:54:56.180Z,42.03
2023-05-09T11:57:46.832Z,41.67
2023-05-09T12:00:37.291Z,42.50
2023-05-09T12:03:26.504Z,41.77
2023-05-09T12:06:17.477Z,41.77
2023-05-09T12:09:06.209Z,43.13
2023-05-09T12:11:54.566Z,43.10
2023-05-09T12:14:43.081Z,43.70
2023-05-09T12:17:33.031Z,43.20
2023-05-09T12:20:21.471Z,42.37
2023-05-09T12:23:10.916Z,42.60
2023-05-09T12:25:59.380Z,41.13
2023-05-09T12:28:48.764Z,41.43
2023-05-09T12:31:37.426Z,44.67
2023-05-09T12:34:27.430Z,42.43
2023-05-09T12:37:17.349Z,41.70
2023-05-09T12:40:07.642Z,42.40
2023-05-09T12:43:00.953Z,41.90
2023-05-09T12:45:53.727Z,44.70
2023-05-09T12:48:43.949Z,42.93
2023-05-09T12:51:33.618Z,39.97
2023-05-09T12:54:23.377Z,41.93
2023-05-09T12:57:22.771Z,42.80
2023-05-09T13:00:12.216Z,41.47
2023-05-09T13:03:00.965Z,42.60
2023-05-09T13:05:56.215Z,42.77
2023-05-09T13:08:57.791Z,40.27
2023-05-09T13:11:46.807Z,41.37
2023-05-09T13:14:35.249Z,41.37
2023-05-09T13:17:23.702Z,40.60
2023-05-09T13:20:12.731Z,41.90
2023-05-09T13:23:01.989Z,40.47
2023-05-09T13:25:51.658Z,40.63
2023-05-09T13:28:40.114Z,40.23
2023-05-09T13:31:28.469Z,39.97
2023-05-09T13:34:16.819Z,40.57
2023-05-09T13:37:05.154Z,40.63
2023-05-09T13:39:54.607Z,41.07
2023-05-09T13:42:44.411Z,38.90
2023-05-09T13:45:32.761Z,40.70
2023-05-09T13:48:21.017Z,39.60
2023-05-09T13:51:10.004Z,39.90
2023-05-09T13:53:58.370Z,39.47
2023-05-09T13:56:46.823Z,40.00
2023-05-09T13:59:36.531Z,40.40
2023-05-09T14:02:25.428Z,39.37
2023-05-09T14:05:13.773Z,40.53
2023-05-09T14:08:02.198Z,38.93
2023-05-09T14:10:51.150Z,39.30
2023-05-09T14:13:39.479Z,38.27
2023-05-09T14:16:29.352Z,39.47
2023-05-09T14:19:17.982Z,39.87
2023-05-09T14:22:06.325Z,39.77
2023-05-09T14:24:56.513Z,38.50
2023-05-09T14:27:44.865Z,38.27
2023-05-09T14:30:33.186Z,42.30
2023-05-09T14:33:23.015Z,39.87
2023-05-09T14:36:11.397Z,37.67
2023-05-09T14:38:59.872Z,40.73
2023-05-09T14:41:50.081Z,38.47
2023-05-09T14:44:39.384Z,38.00
2023-05-09T14:47:28.044Z,39.07
2023-05-09T14:50:17.989Z,40.87
2023-05-09T14:53:06.531Z,38.37
2023-05-09T14:55:55.064Z,40.57
2023-05-09T14:58:43.536Z,39.47
2023-05-09T15:01:31.991Z,37.80
2023-05-09T15:04:20.460Z,36.83
2023-05-09T15:07:10.414Z,37.30
2023-05-09T15:09:59.165Z,36.57
2023-05-09T15:12:47.564Z,37.73
2023-05-09T15:15:38.335Z,37.33
2023-05-09T15:18:28.630Z,38.63
2023-05-09T15:21:17.258Z,37.20
2023-05-09T15:24:07.848Z,38.07
2023-05-09T15:26:56.699Z,37.80
2023-05-09T15:29:45.094Z,49.60
2023-05-09T15:32:33.801Z,37.53
2023-05-09T15:35:22.360Z,34.57
2023-05-09T15:38:12.214Z,36.30
2023-05-09T15:41:01.936Z,35.73
2023-05-09T15:43:50.415Z,37.40
2023-05-09T15:46:39.718Z,38.00
2023-05-09T15:49:28.089Z,37.63
2023-05-09T15:52:16.425Z,35.93
2023-05-09T15:55:05.159Z,36.80
2023-05-09T15:57:54.891Z,35.50
2023-05-09T16:00:43.818Z,37.87
2023-05-09T16:03:32.745Z,37.23
2023-05-09T16:06:21.294Z,38.53
2023-05-09T16:09:10.236Z,37.90
2023-05-09T16:11:58.716Z,38.87
2023-05-09T16:14:48.467Z,36.50
2023-05-09T16:17:36.925Z,38.53
2023-05-09T16:20:25.306Z,39.73
2023-05-09T16:23:13.952Z,38.17
2023-05-09T16:26:02.329Z,37.27
2023-05-09T16:28:50.688Z,38.17
2023-05-09T16:31:40.946Z,39.63
2023-05-09T16:34:29.517Z,40.07
2023-05-09T16:37:18.967Z,38.83
2023-05-09T16:40:08.344Z,39.40
2023-05-09T16:42:56.687Z,38.87
2023-05-09T16:45:45.184Z,39.87
2023-05-09T16:48:35.046Z,39.07
2023-05-09T16:51:23.530Z,39.70
2023-05-09T16:54:12.478Z,40.30
2023-05-09T16:57:00.968Z,41.03
2023-05-09T16:59:49.456Z,41.30
2023-05-09T17:02:38.254Z,39.37
2023-05-09T17:05:28.655Z,40.57
2023-05-09T17:08:17.020Z,39.73
2023-05-09T17:11:06.077Z,40.93
2023-05-09T17:13:54.550Z,41.70
2023-05-09T17:16:42.939Z,41.40
2023-05-09T17:19:32.657Z,40.57
2023-05-09T17:22:23.327Z,40.57
2023-05-09T17:25:11.746Z,41.67
2023-05-09T17:28:00.165Z,41.00
2023-05-09T17:30:48.663Z,42.63
2023-05-09T17:33:37.401Z,41.70
2023-05-09T17:36:25.960Z,40.10
2023-05-09T17:39:15.688Z,41.03
2023-05-09T17:42:04.091Z,40.47
2023-05-09T17:44:52.812Z,40.87
2023-05-09T17:47:41.444Z,41.60
2023-05-09T17:50:29.899Z,41.97
2023-05-09T17:53:18.826Z,42.37
2023-05-09T17:56:08.559Z,40.70
2023-05-09T17:58:57.103Z,42.67
2023-05-09T18:01:45.497Z,41.77
2023-05-09T18:04:34.472Z,41.10
2023-05-09T18:07:22.996Z,40.87
2023-05-09T18:10:11.946Z,41.47
2023-05-09T18:13:01.740Z,41.60
2023-05-09T18:15:50.162Z,41.37
2023-05-09T18:18:38.563Z,43.13
2023-05-09T18:21:27.023Z,45.33
2023-05-09T18:24:16.996Z,41.90
2023-05-09T18:27:05.662Z,40.67
2023-05-09T18:29:55.606Z,43.80
2023-05-09T18:32:44.033Z,42.13
2023-05-09T18:35:32.617Z,42.10
2023-05-09T18:38:21.300Z,41.57
2023-05-09T18:41:11.387Z,41.90
2023-05-09T18:43:59.731Z,42.60
2023-05-09T18:46:49.540Z,43.13
2023-05-09T18:49:38.940Z,43.87
2023-05-09T18:52:27.712Z,44.07
2023-05-09T18:55:19.675Z,47.83
2023-05-09T18:58:08.212Z,42.63
2023-05-09T19:00:56.729Z,42.70
2023-05-09T19:03:47.667Z,42.57
2023-05-09T19:06:36.152Z,43.70
2023-05-09T19:09:24.647Z,42.40
2023-05-09T19:12:13.234Z,42.87
2023-05-09T19:15:01.787Z,44.17
2023-05-09T19:17:52.388Z,42.37
2023-05-09T19:20:42.198Z,43.53
2023-05-09T19:23:31.118Z,45.03
2023-05-09T19:26:21.725Z,43.37
2023-05-09T19:29:10.207Z,46.07
2023-05-09T19:31:58.672Z,43.60
2023-05-09T19:34:47.355Z,42.43
2023-05-09T19:37:37.582Z,43.80
2023-05-09T19:40:26.023Z,44.20
2023-05-09T19:43:14.483Z,43.17
2023-05-09T19:46:02.952Z,44.33
2023-05-09T19:48:51.392Z,43.60
2023-05-09T19:51:40.525Z,43.13
2023-05-09T19:54:32.040Z,42.50
2023-05-09T19:57:20.563Z,43.63
2023-05-09T20:00:09.995Z,42.90
2023-05-09T20:03:00.831Z,42.70
2023-05-09T20:05:49.418Z,45.17
2023-05-09T20:08:37.960Z,43.90
2023-05-09T20:11:27.822Z,43.80
2023-05-09T20:14:16.296Z,42.53
2023-05-09T20:17:05.305Z,42.70
2023-05-09T20:19:53.769Z,43.13
2023-05-09T20:22:42.299Z,43.90
2023-05-09T20:25:30.883Z,43.17
2023-05-09T20:28:22.417Z,42.80
2023-05-09T20:31:11.011Z,44.20
2023-05-09T20:34:00.323Z,44.10
2023-05-09T20:36:52.218Z,42.00
2023-05-09T20:39:40.923Z,42.23
2023-05-09T20:42:29.919Z,43.63
2023-05-09T20:45:19.774Z,42.80
2023-05-09T20:48:08.533Z,43.43
2023-05-09T20:50:57.008Z,43.67
2023-05-09T20:53:45.474Z,42.57
2023-05-09T20:56:35.426Z,42.30
2023-05-09T20:59:23.991Z,42.40
2023-05-09T21:02:13.878Z,43.10
2023-05-09T21:05:02.347Z,41.57
2023-05-09T21:07:50.666Z,43.90
2023-05-09T21:10:39.004Z,42.77
2023-05-09T21:13:27.496Z,43.23
2023-05-09T21:16:17.155Z,43.10
2023-05-09T21:19:08.341Z,43.13
2023-05-09T21:21:56.698Z,42.93
2023-05-09T21:24:45.066Z,42.77
2023-05-09T21:27:33.496Z,44.03
2023-05-09T21:30:21.887Z,41.53
2023-05-09T21:33:10.315Z,43.37
2023-05-09T21:36:00.236Z,42.47
2023-05-09T21:38:48.630Z,42.50
2023-05-09T21:41:37.356Z,44.00
2023-05-09T21:44:25.756Z,41.67
2023-05-09T21:47:14.315Z,42.47
2023-05-09T21:50:04.210Z,42.57
2023-05-09T21:52:56.152Z,42.47
2023-05-09T21:55:44.495Z,42.53
2023-05-09T21:58:32.869Z,41.17
2023-05-09T22:01:21.344Z,41.67
2023-05-09T22:04:09.778Z,42.47
2023-05-09T22:06:58.148Z,42.93
2023-05-09T22:09:48.430Z,43.60
2023-05-09T22:12:36.849Z,42.00
2023-05-09T22:15:25.277Z,43.73
2023-05-09T22:18:13.744Z,45.10
2023-05-09T22:21:02.174Z,42.40
2023-05-09T22:23:50.525Z,42.30
2023-05-09T22:26:41.331Z,41.87
2023-05-09T22:29:29.780Z,42.47
2023-05-09T22:32:18.161Z,42.47
2023-05-09T22:35:07.303Z,41.27
2023-05-09T22:37:55.663Z,41.30
2023-05-09T22:40:44.614Z,42.60
2023-05-09T22:43:39.272Z,43.80
2023-05-09T22:46:28.286Z,41.57
2023-05-09T22:49:16.682Z,43.80
2023-05-09T22:52:05.375Z,44.60
2023-05-09T22:54:53.794Z,42.33
2023-05-09T22:57:42.337Z,42.10
2023-05-09T23:00:32.436Z,41.53
2023-05-09T23:03:20.895Z,42.23
2023-05-09T23:06:09.373Z,43.20
2023-05-09T23:08:57.716Z,42.27
2023-05-09T23:11:46.066Z,42.03
2023-05-09T23:14:34.391Z,40.80
2023-05-09T23:17:24.423Z,42.57
2023-05-09T23:20:13.599Z,43.50
2023-05-09T23:23:03.603Z,40.37
2023-05-09T23:25:52.544Z,42.33
2023-05-09T23:28:40.898Z,41.30
2023-05-09T23:31:29.406Z,42.07
2023-05-09T23:34:19.162Z,43.10
2023-05-09T23:37:07.582Z,42.37
2023-05-09T23:39:56.162Z,42.67
2023-05-09T23:42:44.573Z,40.50
2023-05-09T23:45:33.010Z,42.50
2023-05-09T23:48:21.380Z,42.83
2023-05-09T23:51:11.115Z,42.97
2023-05-09T23:53:59.471Z,42.03
2023-05-09T23:56:47.888Z,41.30
2023-05-09T23:59:36.219Z,41.73
